Time;durP1;ratioP1;P1;durP2;ratioP2;P2;SDS_P1;SDS_P2;PMS_P1;PMS_P2;Temp;Humidity;BMP_temperature;BMP_pressure;BME280_temperature;BME280_humidity;BME280_pressure;Samples;Min_cycle;Max_cycle;Signal;HPM_P1;HPM_P2
2021/07/08 00:01:51;;;;;;;13.23;7.25;;;;;;;;;;5110888;28;20035;-66
2021/07/08 00:04:17;;;;;;;11.80;7.00;;;;;;;;;;5108319;28;20027;-66
2021/07/08 00:06:43;;;;;;;16.92;7.20;;;;;;;;;;5093554;28;20050;-66
2021/07/08 00:09:11;;;;;;;13.05;7.65;;;;;;;;;;5110622;28;20020;-66
2021/07/08 00:11:38;;;;;;;15.02;7.38;;;;;;;;;;5109755;28;20020;-66
2021/07/08 00:14:05;;;;;;;15.57;7.15;;;;;;;;;;5109640;28;20035;-67
2021/07/08 00:16:32;;;;;;;13.77;8.70;;;;;;;;;;5108311;28;20046;-66
2021/07/08 00:18:58;;;;;;;11.23;6.88;;;;;;;;;;5110823;28;20106;-66
2021/07/08 00:21:24;;;;;;;11.20;7.38;;;;;;;;;;5110187;28;20134;-66
2021/07/08 00:23:51;;;;;;;12.10;7.20;;;;;;;;;;5109201;28;20026;-66
2021/07/08 00:26:17;;;;;;;12.18;6.75;;;;;;;;;;5111387;28;20023;-66
2021/07/08 00:28:43;;;;;;;13.00;6.80;;;;;;;;;;5110556;28;20024;-66
2021/07/08 00:31:10;;;;;;;13.43;7.32;;;;;;;;;;5109122;28;20498;-66
2021/07/08 00:33:37;;;;;;;16.75;7.25;;;;;;;;;;5090562;28;20120;-66
2021/07/08 00:36:03;;;;;;;12.60;6.50;;;;;;;;;;5092781;28;20569;-66
2021/07/08 00:38:29;;;;;;;11.20;7.07;;;;;;;;;;5104558;28;20103;-66
2021/07/08 00:40:55;;;;;;;13.95;6.90;;;;;;;;;;5091431;28;20391;-66
2021/07/08 00:43:21;;;;;;;12.30;6.38;;;;;;;;;;5109178;28;20020;-66
2021/07/08 00:45:47;;;;;;;12.25;6.35;;;;;;;;;;5109808;28;20028;-66
2021/07/08 00:48:14;;;;;;;9.65;5.90;;;;;;;;;;5102776;28;20047;-66
2021/07/08 00:50:46;;;;;;;15.38;6.57;;;;;;;;;;5108691;28;20053;-66
2021/07/08 00:53:13;;;;;;;9.73;5.72;;;;;;;;;;5102284;28;20038;-66
2021/07/08 00:55:39;;;;;;;12.88;6.72;;;;;;;;;;5109952;28;20110;-66
2021/07/08 00:58:07;;;;;;;11.02;6.20;;;;;;;;;;5109146;28;20031;-66
2021/07/08 01:00:34;;;;;;;12.60;6.45;;;;;;;;;;5105391;28;20027;-66
2021/07/08 01:03:00;;;;;;;13.52;6.55;;;;;;;;;;5110447;28;20039;-66
2021/07/08 01:05:33;;;;;;;13.27;7.18;;;;;;;;;;5109598;28;20517;-66
2021/07/08 01:08:00;;;;;;;13.30;6.80;;;;;;;;;;5109567;28;20510;-66
2021/07/08 01:10:27;;;;;;;15.07;7.63;;;;;;;;;;5091602;28;20027;-66
2021/07/08 01:12:53;;;;;;;11.98;6.05;;;;;;;;;;5109969;28;20032;-66
2021/07/08 01:15:19;;;;;;;12.60;7.10;;;;;;;;;;5109628;28;20055;-66
2021/07/08 01:17:45;;;;;;;12.25;6.50;;;;;;;;;;5109486;28;20024;-66
2021/07/08 01:20:13;;;;;;;10.77;6.50;;;;;;;;;;5110008;28;20134;-66
2021/07/08 01:22:39;;;;;;;13.10;7.07;;;;;;;;;;5107274;28;20559;-66
2021/07/08 01:25:06;;;;;;;12.90;6.90;;;;;;;;;;5108543;28;20032;-66
2021/07/08 01:27:32;;;;;;;13.80;6.78;;;;;;;;;;5091398;28;20451;-66
2021/07/08 01:29:59;;;;;;;11.98;6.85;;;;;;;;;;5109839;28;20487;-66
2021/07/08 01:32:25;;;;;;;14.02;6.93;;;;;;;;;;5109624;28;20020;-66
2021/07/08 01:34:51;;;;;;;10.80;6.22;;;;;;;;;;5108241;28;20028;-66
2021/07/08 01:37:17;;;;;;;12.13;7.30;;;;;;;;;;5091366;28;20111;-66
2021/07/08 01:39:44;;;;;;;13.35;6.55;;;;;;;;;;5109866;28;20099;-66
2021/07/08 01:42:10;;;;;;;13.43;6.78;;;;;;;;;;5111895;28;20027;-66
2021/07/08 01:44:37;;;;;;;11.00;6.38;;;;;;;;;;5111975;27;20034;-66
2021/07/08 01:47:03;;;;;;;12.00;7.35;;;;;;;;;;5094128;28;20111;-66
2021/07/08 01:49:29;;;;;;;13.10;6.60;;;;;;;;;;5094216;28;20588;-66
2021/07/08 01:51:55;;;;;;;11.13;6.68;;;;;;;;;;5094465;28;20554;-66
2021/07/08 01:54:21;;;;;;;10.85;6.60;;;;;;;;;;5111810;28;20565;-66
2021/07/08 01:56:47;;;;;;;11.13;6.32;;;;;;;;;;5113891;28;20541;-66
2021/07/08 01:59:14;;;;;;;13.00;7.22;;;;;;;;;;5113279;28;20106;-66
2021/07/08 02:01:40;;;;;;;14.25;6.97;;;;;;;;;;5106946;28;20027;-66
2021/07/08 02:04:06;;;;;;;16.20;6.50;;;;;;;;;;5110826;28;20024;-66
2021/07/08 02:06:32;;;;;;;12.35;7.00;;;;;;;;;;5113896;28;20028;-66
2021/07/08 02:08:58;;;;;;;13.77;7.05;;;;;;;;;;5112212;28;20043;-66
2021/07/08 02:11:24;;;;;;;14.13;6.38;;;;;;;;;;5114163;28;20028;-66
2021/07/08 02:13:51;;;;;;;13.43;7.38;;;;;;;;;;5112521;28;20015;-66
2021/07/08 02:16:17;;;;;;;12.55;6.00;;;;;;;;;;5113511;28;20020;-66
2021/07/08 02:18:44;;;;;;;11.82;7.07;;;;;;;;;;5094691;28;20081;-66
2021/07/08 02:21:11;;;;;;;12.25;6.38;;;;;;;;;;5113948;28;20016;-66
2021/07/08 02:23:37;;;;;;;11.63;7.05;;;;;;;;;;5103667;28;20031;-66
2021/07/08 02:26:04;;;;;;;13.93;7.63;;;;;;;;;;5102792;28;20049;-66
2021/07/08 02:28:30;;;;;;;10.52;6.40;;;;;;;;;;5112984;28;20015;-66
2021/07/08 02:30:56;;;;;;;10.93;6.47;;;;;;;;;;5095217;28;20023;-66
2021/07/08 02:33:23;;;;;;;10.45;6.13;;;;;;;;;;5112137;28;20039;-66
2021/07/08 02:35:50;;;;;;;13.55;6.95;;;;;;;;;;5113212;28;20035;-66
2021/07/08 02:38:16;;;;;;;12.70;6.68;;;;;;;;;;5112622;28;20027;-66
2021/07/08 02:40:42;;;;;;;11.30;6.97;;;;;;;;;;5110801;28;20406;-66
2021/07/08 02:43:08;;;;;;;11.60;6.28;;;;;;;;;;5101118;28;20036;-66
2021/07/08 02:45:37;;;;;;;10.82;6.13;;;;;;;;;;5094085;28;20036;-67
2021/07/08 02:48:04;;;;;;;11.30;5.63;;;;;;;;;;5094303;28;20122;-66
2021/07/08 02:50:31;;;;;;;12.68;6.35;;;;;;;;;;5113042;28;20499;-66
2021/07/08 02:52:57;;;;;;;10.57;5.90;;;;;;;;;;5112045;28;20047;-66
2021/07/08 02:55:24;;;;;;;10.52;6.43;;;;;;;;;;5111262;28;20019;-66
2021/07/08 02:57:50;;;;;;;12.20;6.13;;;;;;;;;;5111894;28;20530;-66
2021/07/08 03:00:17;;;;;;;10.25;6.70;;;;;;;;;;5112071;28;20028;-66
2021/07/08 03:02:43;;;;;;;8.65;5.32;;;;;;;;;;5094114;28;20494;-66
2021/07/08 03:05:10;;;;;;;12.63;7.32;;;;;;;;;;5111182;28;20024;-66
2021/07/08 03:07:37;;;;;;;12.35;5.72;;;;;;;;;;5094080;28;20503;-66
2021/07/08 03:10:03;;;;;;;9.75;5.97;;;;;;;;;;5112184;28;20400;-66
2021/07/08 03:12:29;;;;;;;10.18;5.85;;;;;;;;;;5112119;28;20032;-66
2021/07/08 03:14:56;;;;;;;12.65;6.25;;;;;;;;;;5110961;28;20152;-66
2021/07/08 03:17:22;;;;;;;11.27;6.60;;;;;;;;;;5110909;28;20027;-67
2021/07/08 03:19:48;;;;;;;11.85;5.95;;;;;;;;;;5112332;28;20019;-66
2021/07/08 03:22:14;;;;;;;15.02;6.53;;;;;;;;;;5110852;28;20024;-66
2021/07/08 03:24:40;;;;;;;14.30;6.18;;;;;;;;;;5111219;28;20475;-66
2021/07/08 03:27:06;;;;;;;13.77;6.45;;;;;;;;;;5112324;27;20024;-67
2021/07/08 03:29:32;;;;;;;13.48;6.30;;;;;;;;;;5088070;28;20073;-66
2021/07/08 03:31:58;;;;;;;14.23;6.95;;;;;;;;;;5106016;28;20423;-66
2021/07/08 03:34:24;;;;;;;11.35;6.57;;;;;;;;;;5109401;28;20515;-67
2021/07/08 03:36:50;;;;;;;11.20;6.40;;;;;;;;;;5111963;28;20027;-66
2021/07/08 03:39:16;;;;;;;11.18;6.38;;;;;;;;;;5105165;28;20035;-67
2021/07/08 03:41:44;;;;;;;13.27;6.60;;;;;;;;;;5087008;28;20024;-66
2021/07/08 03:44:10;;;;;;;14.05;7.35;;;;;;;;;;5089883;28;20028;-66
2021/07/08 03:46:36;;;;;;;12.13;7.22;;;;;;;;;;5110584;28;20028;-66
2021/07/08 03:49:02;;;;;;;14.43;7.60;;;;;;;;;;5103679;28;20032;-66
2021/07/08 03:51:28;;;;;;;13.52;7.95;;;;;;;;;;5110848;28;20047;-66
2021/07/08 03:53:54;;;;;;;14.02;7.68;;;;;;;;;;5110110;28;20042;-67
2021/07/08 03:56:20;;;;;;;15.13;7.03;;;;;;;;;;5111567;28;20023;-67
2021/07/08 03:58:46;;;;;;;13.95;7.75;;;;;;;;;;5106766;28;20045;-67
2021/07/08 04:01:12;;;;;;;13.65;8.02;;;;;;;;;;5106089;28;20034;-66
2021/07/08 04:03:38;;;;;;;12.30;7.53;;;;;;;;;;5108587;28;20027;-67
2021/07/08 04:06:05;;;;;;;17.02;8.75;;;;;;;;;;5111122;28;20573;-66
2021/07/08 04:08:31;;;;;;;13.23;8.73;;;;;;;;;;5109924;28;20111;-67
2021/07/08 04:10:57;;;;;;;17.98;9.45;;;;;;;;;;5109897;28;20046;-67
2021/07/08 04:13:23;;;;;;;15.10;7.70;;;;;;;;;;5109836;28;20487;-66
2021/07/08 04:15:50;;;;;;;16.33;8.38;;;;;;;;;;5111379;28;20028;-67
2021/07/08 04:18:17;;;;;;;16.35;8.55;;;;;;;;;;5111095;28;20035;-67
2021/07/08 04:20:44;;;;;;;14.13;8.13;;;;;;;;;;5089758;28;20016;-67
2021/07/08 04:23:10;;;;;;;16.60;8.75;;;;;;;;;;5098253;28;20495;-67
2021/07/08 04:25:36;;;;;;;15.43;8.45;;;;;;;;;;5091894;28;20517;-67
2021/07/08 04:28:02;;;;;;;15.88;8.38;;;;;;;;;;5096616;28;20024;-67
2021/07/08 04:30:29;;;;;;;16.55;7.55;;;;;;;;;;5107122;28;20103;-66
2021/07/08 04:32:56;;;;;;;14.70;8.23;;;;;;;;;;5104694;28;20023;-67
2021/07/08 04:35:28;;;;;;;13.43;8.18;;;;;;;;;;5103967;28;20072;-67
2021/07/08 04:37:54;;;;;;;13.63;8.25;;;;;;;;;;5094866;28;20028;-66
2021/07/08 04:40:21;;;;;;;14.30;8.60;;;;;;;;;;5109499;28;20109;-67
2021/07/08 04:42:48;;;;;;;19.65;8.98;;;;;;;;;;5092822;28;20039;-67
2021/07/08 04:45:14;;;;;;;13.65;8.18;;;;;;;;;;5109781;28;20027;-66
2021/07/08 04:47:41;;;;;;;16.52;8.90;;;;;;;;;;5108413;28;20073;-67
2021/07/08 04:50:09;;;;;;;11.73;7.53;;;;;;;;;;5091263;28;20509;-67
2021/07/08 04:52:36;;;;;;;15.75;8.55;;;;;;;;;;5109505;28;20024;-67
2021/07/08 04:55:03;;;;;;;13.50;8.40;;;;;;;;;;5109466;28;20035;-66
2021/07/08 04:57:29;;;;;;;15.25;8.25;;;;;;;;;;5110976;28;20023;-67
2021/07/08 04:59:55;;;;;;;17.77;10.52;;;;;;;;;;5110853;28;20072;-67
2021/07/08 05:02:21;;;;;;;15.45;8.68;;;;;;;;;;5091378;28;20032;-67
2021/07/08 05:04:47;;;;;;;13.50;7.97;;;;;;;;;;5106505;28;20028;-67
2021/07/08 05:07:15;;;;;;;20.05;9.38;;;;;;;;;;5091926;28;20032;-67
2021/07/08 05:09:41;;;;;;;16.75;8.93;;;;;;;;;;5091115;28;20028;-66
2021/07/08 05:12:08;;;;;;;13.85;8.63;;;;;;;;;;5109904;28;20556;-66
2021/07/08 05:14:34;;;;;;;19.40;10.55;;;;;;;;;;5108717;28;20028;-67
2021/07/08 05:17:01;;;;;;;19.75;9.85;;;;;;;;;;5110296;28;20038;-67
2021/07/08 05:19:27;;;;;;;16.67;10.70;;;;;;;;;;5114631;28;20027;-66
2021/07/08 05:21:54;;;;;;;20.02;10.88;;;;;;;;;;5105498;28;20057;-66
2021/07/08 05:24:23;;;;;;;19.70;12.23;;;;;;;;;;5111467;28;20031;-66
2021/07/08 05:26:49;;;;;;;19.40;11.98;;;;;;;;;;5114371;28;20032;-66
2021/07/08 05:29:16;;;;;;;23.10;11.52;;;;;;;;;;5114421;28;20106;-67
2021/07/08 05:31:42;;;;;;;17.27;10.73;;;;;;;;;;5114043;28;20026;-66
2021/07/08 05:34:08;;;;;;;17.60;10.32;;;;;;;;;;5093772;28;20039;-66
2021/07/08 05:36:34;;;;;;;18.63;10.50;;;;;;;;;;5114485;28;20063;-67
2021/07/08 05:39:00;;;;;;;18.73;11.23;;;;;;;;;;5113996;28;20047;-66
2021/07/08 05:41:26;;;;;;;17.63;10.50;;;;;;;;;;5114386;28;20456;-66
2021/07/08 05:43:52;;;;;;;14.88;9.95;;;;;;;;;;5112751;28;20491;-66
2021/07/08 05:46:19;;;;;;;19.63;10.13;;;;;;;;;;5093459;28;20032;-66
2021/07/08 05:48:45;;;;;;;19.02;10.15;;;;;;;;;;5113513;28;20032;-66
2021/07/08 05:51:12;;;;;;;15.45;10.45;;;;;;;;;;5112013;28;20123;-66
2021/07/08 05:53:38;;;;;;;19.25;10.45;;;;;;;;;;5112381;28;20027;-66
2021/07/08 05:56:05;;;;;;;16.73;10.27;;;;;;;;;;5113546;28;20032;-66
2021/07/08 05:58:31;;;;;;;19.83;11.23;;;;;;;;;;5113821;28;20032;-66
2021/07/08 06:00:57;;;;;;;19.27;10.30;;;;;;;;;;5106069;28;20028;-66
2021/07/08 06:03:24;;;;;;;17.42;9.98;;;;;;;;;;5107938;28;20028;-66
2021/07/08 06:05:50;;;;;;;22.83;10.85;;;;;;;;;;5094950;28;20028;-66
2021/07/08 06:08:16;;;;;;;19.25;10.35;;;;;;;;;;5099254;28;20047;-66
2021/07/08 06:10:43;;;;;;;20.38;10.13;;;;;;;;;;5111087;28;20490;-66
2021/07/08 06:13:12;;;;;;;18.73;10.57;;;;;;;;;;5112596;28;20023;-66
2021/07/08 06:15:38;;;;;;;17.38;10.32;;;;;;;;;;5109189;28;20106;-66
2021/07/08 06:18:05;;;;;;;17.58;10.23;;;;;;;;;;5107844;28;20032;-66
2021/07/08 06:20:31;;;;;;;23.90;11.20;;;;;;;;;;5113238;28;20044;-65
2021/07/08 06:22:57;;;;;;;20.67;11.00;;;;;;;;;;5094392;28;20023;-66
2021/07/08 06:25:26;;;;;;;17.98;10.27;;;;;;;;;;5111629;28;20077;-67
2021/07/08 06:27:52;;;;;;;21.45;9.05;;;;;;;;;;5113068;27;20115;-66
2021/07/08 06:30:19;;;;;;;21.92;10.07;;;;;;;;;;5094635;28;20106;-66
2021/07/08 06:32:45;;;;;;;22.02;12.85;;;;;;;;;;5101135;28;20027;-66
2021/07/08 06:35:13;;;;;;;27.27;11.68;;;;;;;;;;5111733;28;20604;-66
2021/07/08 06:37:39;;;;;;;19.38;10.90;;;;;;;;;;5109457;28;20016;-66
2021/07/08 06:40:05;;;;;;;22.13;12.05;;;;;;;;;;5112260;28;20104;-67
2021/07/08 06:42:31;;;;;;;19.10;11.10;;;;;;;;;;5112827;28;20533;-66
2021/07/08 06:44:57;;;;;;;16.90;10.63;;;;;;;;;;5114330;27;20024;-65
2021/07/08 06:47:26;;;;;;;19.05;11.70;;;;;;;;;;5093185;28;20028;-67
2021/07/08 06:49:52;;;;;;;21.55;11.00;;;;;;;;;;5112713;28;20004;-67
2021/07/08 06:52:19;;;;;;;21.80;11.68;;;;;;;;;;5094271;28;20118;-66
2021/07/08 06:54:45;;;;;;;24.27;11.77;;;;;;;;;;5092918;28;20414;-66
2021/07/08 06:57:11;;;;;;;22.67;12.25;;;;;;;;;;5112775;28;20498;-65
2021/07/08 06:59:37;;;;;;;21.10;11.95;;;;;;;;;;5112485;28;20411;-66
2021/07/08 07:02:03;;;;;;;23.83;12.50;;;;;;;;;;5112392;28;20023;-66
2021/07/08 07:04:29;;;;;;;25.58;12.15;;;;;;;;;;5109450;28;20036;-66
2021/07/08 07:06:55;;;;;;;26.48;13.43;;;;;;;;;;5110325;28;20029;-67
2021/07/08 07:09:22;;;;;;;20.77;11.95;;;;;;;;;;5110003;28;20020;-66
2021/07/08 07:11:48;;;;;;;25.00;13.95;;;;;;;;;;5111708;28;20016;-66
2021/07/08 07:14:14;;;;;;;24.08;13.48;;;;;;;;;;5091492;28;20406;-66
2021/07/08 07:16:40;;;;;;;25.00;13.35;;;;;;;;;;5093269;28;20019;-66
2021/07/08 07:19:06;;;;;;;24.67;12.45;;;;;;;;;;5111563;28;20050;-67
2021/07/08 07:21:32;;;;;;;21.13;11.43;;;;;;;;;;5092472;28;20165;-66
2021/07/08 07:23:59;;;;;;;22.40;13.02;;;;;;;;;;5108229;28;20114;-67
2021/07/08 07:26:25;;;;;;;19.75;13.55;;;;;;;;;;5110568;27;20169;-66
2021/07/08 07:28:51;;;;;;;23.25;13.77;;;;;;;;;;5093115;28;20020;-66
2021/07/08 07:31:17;;;;;;;22.15;14.20;;;;;;;;;;5092657;28;20104;-66
2021/07/08 07:33:43;;;;;;;21.08;13.63;;;;;;;;;;5109386;28;20020;-67
2021/07/08 07:36:10;;;;;;;25.02;14.60;;;;;;;;;;5091943;28;20047;-67
2021/07/08 07:38:37;;;;;;;24.10;14.30;;;;;;;;;;5110387;28;20088;-67
2021/07/08 07:41:04;;;;;;;21.58;14.00;;;;;;;;;;5110579;28;20427;-67
2021/07/08 07:43:30;;;;;;;22.50;13.75;;;;;;;;;;5091447;28;20565;-67
2021/07/08 07:45:56;;;;;;;25.88;14.93;;;;;;;;;;5091947;28;20024;-66
2021/07/08 07:48:22;;;;;;;25.02;14.30;;;;;;;;;;5108527;28;20085;-67
2021/07/08 07:50:48;;;;;;;22.45;13.75;;;;;;;;;;5110733;28;20112;-67
2021/07/08 07:53:14;;;;;;;24.38;12.77;;;;;;;;;;5108900;28;20023;-67
2021/07/08 07:55:40;;;;;;;20.77;11.40;;;;;;;;;;5108991;28;20023;-67
2021/07/08 07:58:06;;;;;;;20.98;12.02;;;;;;;;;;5110271;28;20043;-67
2021/07/08 08:00:35;;;;;;;17.92;10.88;;;;;;;;;;5110429;28;20054;-67
2021/07/08 08:03:02;;;;;;;23.65;11.68;;;;;;;;;;5092272;28;20028;-67
2021/07/08 08:10:43;;;;;;;17.63;10.35;;;;;;;;;;5108571;28;20254;-67
2021/07/08 08:13:09;;;;;;;18.23;9.70;;;;;;;;;;5109436;28;20099;-67
2021/07/08 08:15:35;;;;;;;18.42;10.10;;;;;;;;;;5108076;28;20050;-67
2021/07/08 08:18:02;;;;;;;16.05;9.57;;;;;;;;;;5109927;28;20032;-66
2021/07/08 08:20:29;;;;;;;15.65;8.88;;;;;;;;;;5107913;28;20110;-67
2021/07/08 08:22:56;;;;;;;16.33;10.13;;;;;;;;;;5092964;28;20673;-67
2021/07/08 08:25:22;;;;;;;14.00;9.23;;;;;;;;;;5107464;28;20028;-67
2021/07/08 08:27:48;;;;;;;17.33;9.85;;;;;;;;;;5110466;28;20019;-67
2021/07/08 08:30:14;;;;;;;15.98;8.43;;;;;;;;;;5110866;28;20020;-67
2021/07/08 08:32:41;;;;;;;17.52;8.13;;;;;;;;;;5110729;28;20047;-68
2021/07/08 08:35:08;;;;;;;14.50;7.65;;;;;;;;;;5107862;28;20119;-67
2021/07/08 08:37:34;;;;;;;15.52;7.18;;;;;;;;;;5110478;28;20429;-67
2021/07/08 08:40:00;;;;;;;12.13;6.93;;;;;;;;;;5110369;28;20027;-67
2021/07/08 08:42:27;;;;;;;15.63;7.50;;;;;;;;;;5110720;28;20042;-67
2021/07/08 08:44:54;;;;;;;14.25;7.28;;;;;;;;;;5113925;27;20035;-67
2021/07/08 08:47:20;;;;;;;16.30;7.95;;;;;;;;;;5110480;28;20024;-67
2021/07/08 08:49:46;;;;;;;14.07;7.10;;;;;;;;;;5109669;28;20027;-67
2021/07/08 08:52:12;;;;;;;16.52;7.47;;;;;;;;;;5113356;28;20077;-66
2021/07/08 08:54:40;;;;;;;15.55;7.80;;;;;;;;;;5112127;28;20024;-66
2021/07/08 08:57:07;;;;;;;12.90;6.95;;;;;;;;;;5114311;28;20093;-66
2021/07/08 08:59:33;;;;;;;12.52;7.22;;;;;;;;;;5096305;28;20312;-67
2021/07/08 09:02:20;;;;;;;14.38;7.88;;;;;;;;;;5115215;28;20310;-66
2021/07/08 09:04:47;;;;;;;14.40;6.82;;;;;;;;;;5110365;28;20036;-67
2021/07/08 09:07:23;;;;;;;14.45;7.75;;;;;;;;;;5114135;28;20438;-67
2021/07/08 09:09:53;;;;;;;12.57;7.18;;;;;;;;;;5095802;28;20160;-65
2021/07/08 09:12:22;;;;;;;16.73;7.50;;;;;;;;;;5114200;28;20406;-66
2021/07/08 09:14:48;;;;;;;11.52;7.88;;;;;;;;;;5111029;28;20107;-66
2021/07/08 09:17:22;;;;;;;15.10;7.93;;;;;;;;;;5113794;28;20120;-66
2021/07/08 09:19:49;;;;;;;15.88;7.22;;;;;;;;;;5114469;28;20020;-66
2021/07/08 09:22:28;;;;;;;12.63;7.13;;;;;;;;;;5114391;28;20517;-68
2021/07/08 09:24:54;;;;;;;12.25;6.63;;;;;;;;;;5111155;28;20067;-66
2021/07/08 09:27:24;;;;;;;15.90;6.85;;;;;;;;;;5113610;28;20027;-66
2021/07/08 09:29:51;;;;;;;15.18;7.93;;;;;;;;;;5110833;28;20027;-66
2021/07/08 09:32:18;;;;;;;13.73;6.50;;;;;;;;;;5091483;28;20078;-67
2021/07/08 09:34:48;;;;;;;14.07;7.38;;;;;;;;;;5091527;28;20107;-67
2021/07/08 09:37:14;;;;;;;12.35;6.53;;;;;;;;;;5095308;28;20028;-66
2021/07/08 09:39:48;;;;;;;13.15;7.05;;;;;;;;;;5113528;28;20023;-66
2021/07/08 09:42:15;;;;;;;15.15;7.57;;;;;;;;;;5113644;28;20023;-67
2021/07/08 09:44:41;;;;;;;13.40;6.95;;;;;;;;;;5111195;28;20034;-66
2021/07/08 09:47:25;;;;;;;13.20;7.18;;;;;;;;;;5113418;28;20024;-67
2021/07/08 09:49:51;;;;;;;15.40;7.57;;;;;;;;;;5101473;28;20542;-66
2021/07/08 09:52:18;;;;;;;14.35;7.28;;;;;;;;;;5094463;28;20044;-67
2021/07/08 09:57:33;;;;;;;10.80;7.03;;;;;;;;;;5104038;28;20064;-66
2021/07/08 09:59:59;;;;;;;12.05;7.43;;;;;;;;;;5105742;28;20024;-67
2021/07/08 10:02:30;;;;;;;12.38;7.10;;;;;;;;;;5112718;28;20031;-67
2021/07/08 10:04:56;;;;;;;15.20;7.65;;;;;;;;;;5110761;28;20054;-67
2021/07/08 10:07:22;;;;;;;15.95;7.05;;;;;;;;;;5113874;28;20072;-67
2021/07/08 10:09:48;;;;;;;11.52;6.65;;;;;;;;;;5113011;28;20482;-67
2021/07/08 10:12:14;;;;;;;15.20;6.80;;;;;;;;;;5113195;28;20060;-67
2021/07/08 10:14:43;;;;;;;13.85;7.75;;;;;;;;;;5110380;28;20023;-67
2021/07/08 10:17:10;;;;;;;13.10;7.80;;;;;;;;;;5094721;28;20040;-67
2021/07/08 10:19:36;;;;;;;14.00;7.90;;;;;;;;;;5113574;28;20023;-67
2021/07/08 10:22:02;;;;;;;12.20;7.68;;;;;;;;;;5113063;28;20071;-68
2021/07/08 10:24:29;;;;;;;13.32;7.93;;;;;;;;;;5110151;28;20032;-67
2021/07/08 10:26:55;;;;;;;14.73;7.18;;;;;;;;;;5113191;28;20034;-67
2021/07/08 10:29:21;;;;;;;14.43;7.97;;;;;;;;;;5112690;28;20085;-66
2021/07/08 10:31:48;;;;;;;13.02;7.13;;;;;;;;;;5113177;28;20055;-68
2021/07/08 10:34:18;;;;;;;17.75;7.28;;;;;;;;;;5110399;28;20051;-67
2021/07/08 10:36:49;;;;;;;13.93;7.95;;;;;;;;;;5094849;28;20028;-67
2021/07/08 10:39:18;;;;;;;11.68;7.78;;;;;;;;;;5112480;28;20062;-67
2021/07/08 10:41:45;;;;;;;12.63;7.10;;;;;;;;;;5113030;28;20024;-67
2021/07/08 10:44:30;;;;;;;11.38;7.65;;;;;;;;;;5123832;27;20106;-67
2021/07/08 10:46:56;;;;;;;9.80;6.75;;;;;;;;;;5133758;27;20039;-67
2021/07/08 10:49:23;;;;;;;15.70;7.47;;;;;;;;;;5096477;28;20030;-67
2021/07/08 10:51:49;;;;;;;16.00;7.10;;;;;;;;;;5112109;28;20062;-67
2021/07/08 10:54:35;;;;;;;12.45;6.93;;;;;;;;;;5090653;28;20031;-66
2021/07/08 10:57:02;;;;;;;15.02;7.53;;;;;;;;;;5104920;28;20011;-66
2021/07/08 10:59:40;;;;;;;15.13;7.82;;;;;;;;;;5108765;28;20521;-66
2021/07/08 11:02:06;;;;;;;15.85;7.78;;;;;;;;;;5111477;28;20042;-67
2021/07/08 11:04:44;;;;;;;12.90;7.72;;;;;;;;;;5091380;28;20026;-66
2021/07/08 11:07:15;;;;;;;13.55;8.02;;;;;;;;;;5112105;28;20031;-66
2021/07/08 11:10:02;;;;;;;14.55;8.75;;;;;;;;;;5110946;28;20058;-66
2021/07/08 11:12:30;;;;;;;16.52;8.75;;;;;;;;;;5091056;28;20410;-66
2021/07/08 11:14:56;;;;;;;15.93;8.77;;;;;;;;;;5108129;28;20027;-66
2021/07/08 11:17:23;;;;;;;13.98;8.10;;;;;;;;;;5093347;28;20027;-67
2021/07/08 11:19:49;;;;;;;15.07;9.23;;;;;;;;;;5111491;28;20023;-66
2021/07/08 11:22:21;;;;;;;15.55;9.40;;;;;;;;;;5088253;28;20019;-67
2021/07/08 11:24:50;;;;;;;13.70;9.00;;;;;;;;;;5107365;28;20039;-66
2021/07/08 11:27:16;;;;;;;17.77;10.80;;;;;;;;;;5111012;28;20032;-66
2021/07/08 11:29:46;;;;;;;16.58;11.40;;;;;;;;;;5111617;28;20020;-67
2021/07/08 11:32:29;;;;;;;15.63;11.40;;;;;;;;;;5109633;28;20115;-66
2021/07/08 11:34:57;;;;;;;16.48;10.57;;;;;;;;;;5106559;28;20077;-66
2021/07/08 11:37:27;;;;;;;14.98;11.00;;;;;;;;;;5100062;28;20036;-65
2021/07/08 11:39:55;;;;;;;14.07;9.25;;;;;;;;;;5108336;28;20027;-66
2021/07/08 11:42:23;;;;;;;15.13;10.35;;;;;;;;;;5110091;28;20098;-66
2021/07/08 11:44:49;;;;;;;17.63;11.00;;;;;;;;;;5110068;27;20040;-66
2021/07/08 11:47:15;;;;;;;16.05;11.57;;;;;;;;;;5107943;28;20015;-67
2021/07/08 11:49:42;;;;;;;18.27;9.82;;;;;;;;;;5091779;28;20035;-66
2021/07/08 11:52:21;;;;;;;16.23;9.25;;;;;;;;;;5110292;28;20040;-66
2021/07/08 11:54:54;;;;;;;16.65;8.93;;;;;;;;;;5106907;28;20546;-66
2021/07/08 11:57:21;;;;;;;15.45;9.68;;;;;;;;;;5109313;28;20066;-66
2021/07/08 11:59:48;;;;;;;16.58;8.70;;;;;;;;;;5110167;28;20521;-66
2021/07/08 12:02:30;;;;;;;13.93;7.90;;;;;;;;;;5111369;28;20031;-67
2021/07/08 12:05:16;;;;;;;13.95;9.10;;;;;;;;;;5099763;28;20028;-66
2021/07/08 12:07:43;;;;;;;16.02;9.45;;;;;;;;;;5110159;28;20019;-65
2021/07/08 12:10:10;;;;;;;16.48;8.07;;;;;;;;;;5092604;28;20235;-66
2021/07/08 12:12:37;;;;;;;12.48;8.13;;;;;;;;;;5110441;28;20012;-67
2021/07/08 12:15:03;;;;;;;15.05;8.05;;;;;;;;;;5106139;28;20028;-66
2021/07/08 12:17:31;;;;;;;10.98;7.75;;;;;;;;;;5110292;28;20585;-66
2021/07/08 12:20:07;;;;;;;13.80;8.30;;;;;;;;;;5110528;28;20107;-66
2021/07/08 12:22:33;;;;;;;15.20;8.23;;;;;;;;;;5107810;28;20032;-66
2021/07/08 12:24:59;;;;;;;14.32;8.30;;;;;;;;;;5106822;28;20016;-66
2021/07/08 12:27:26;;;;;;;15.73;9.15;;;;;;;;;;5110214;28;20479;-65
2021/07/08 12:29:53;;;;;;;17.02;8.25;;;;;;;;;;5110431;28;20019;-66
2021/07/08 12:32:21;;;;;;;16.88;7.97;;;;;;;;;;5091053;28;20016;-66
2021/07/08 12:34:49;;;;;;;11.95;7.63;;;;;;;;;;5108639;28;20046;-66
2021/07/08 12:37:20;;;;;;;13.05;7.80;;;;;;;;;;5110768;28;20027;-66
2021/07/08 12:40:06;;;;;;;13.25;8.25;;;;;;;;;;5110702;28;20070;-66
2021/07/08 12:42:33;;;;;;;11.70;7.20;;;;;;;;;;5110023;28;20020;-67
2021/07/08 12:45:01;;;;;;;10.48;7.10;;;;;;;;;;5107603;28;20027;-66
2021/07/08 12:47:27;;;;;;;11.98;6.95;;;;;;;;;;5091058;28;20058;-68
2021/07/08 12:49:54;;;;;;;13.15;7.75;;;;;;;;;;5087147;28;20024;-67
2021/07/08 12:52:21;;;;;;;10.90;7.03;;;;;;;;;;5108994;28;20055;-67
2021/07/08 12:54:47;;;;;;;11.90;7.65;;;;;;;;;;5106262;28;20027;-67
2021/07/08 12:57:15;;;;;;;14.02;7.25;;;;;;;;;;5110392;28;20085;-67
2021/07/08 12:59:58;;;;;;;16.55;7.18;;;;;;;;;;5105474;28;20016;-67
2021/07/08 13:02:25;;;;;;;13.10;7.30;;;;;;;;;;5109417;28;20027;-68
2021/07/08 13:05:04;;;;;;;12.30;7.68;;;;;;;;;;5101751;28;20412;-67
2021/07/08 13:07:30;;;;;;;22.60;8.35;;;;;;;;;;5090401;28;20521;-66
2021/07/08 13:10:02;;;;;;;15.38;8.18;;;;;;;;;;5109461;28;20007;-67
2021/07/08 13:12:28;;;;;;;14.45;7.53;;;;;;;;;;5107115;28;20018;-67
2021/07/08 13:14:55;;;;;;;10.88;6.40;;;;;;;;;;5106804;28;20028;-67
2021/07/08 13:17:39;;;;;;;13.43;8.13;;;;;;;;;;5109472;28;20591;-67
2021/07/08 13:20:09;;;;;;;11.02;7.15;;;;;;;;;;5108843;28;20054;-67
2021/07/08 13:22:46;;;;;;;11.52;7.82;;;;;;;;;;5109865;28;20035;-66
2021/07/08 13:25:14;;;;;;;17.83;8.82;;;;;;;;;;5107096;28;20020;-67
2021/07/08 13:27:41;;;;;;;13.73;9.48;;;;;;;;;;5092366;28;20484;-67
2021/07/08 13:30:26;;;;;;;11.27;7.30;;;;;;;;;;5109915;28;20055;-66
2021/07/08 13:33:02;;;;;;;15.35;8.75;;;;;;;;;;5110534;28;20012;-67
2021/07/08 13:35:46;;;;;;;12.60;7.68;;;;;;;;;;5107736;28;20576;-66
2021/07/08 13:38:16;;;;;;;11.52;7.25;;;;;;;;;;5112610;28;20119;-66
2021/07/08 13:41:02;;;;;;;11.32;7.15;;;;;;;;;;5113661;28;20028;-66
2021/07/08 13:43:32;;;;;;;10.85;6.70;;;;;;;;;;5110749;28;20996;-67
2021/07/08 13:46:15;;;;;;;14.45;7.15;;;;;;;;;;5112466;28;20077;-66
2021/07/08 13:48:41;;;;;;;12.52;6.93;;;;;;;;;;5107712;28;20057;-66
2021/07/08 13:51:08;;;;;;;13.63;7.90;;;;;;;;;;5112976;28;20040;-66
2021/07/08 13:53:34;;;;;;;13.63;7.90;;;;;;;;;;5110124;28;20533;-67
2021/07/08 13:56:00;;;;;;;11.40;7.53;;;;;;;;;;5109351;28;20031;-67
2021/07/08 13:58:27;;;;;;;12.18;7.55;;;;;;;;;;5113580;28;20055;-67
2021/07/08 14:00:53;;;;;;;12.73;7.22;;;;;;;;;;5112241;28;20039;-66
2021/07/08 14:03:20;;;;;;;14.68;6.72;;;;;;;;;;5109996;28;20835;-67
2021/07/08 14:05:46;;;;;;;12.05;7.40;;;;;;;;;;5111028;28;20544;-66
2021/07/08 14:08:14;;;;;;;17.25;8.57;;;;;;;;;;5093527;28;20024;-65
2021/07/08 14:10:40;;;;;;;13.85;8.32;;;;;;;;;;5112229;28;20399;-66
2021/07/08 14:13:06;;;;;;;11.75;7.72;;;;;;;;;;5111698;28;20463;-67
2021/07/08 14:15:32;;;;;;;13.60;6.97;;;;;;;;;;5109312;28;20012;-66
2021/07/08 14:17:58;;;;;;;12.60;6.88;;;;;;;;;;5109946;28;20509;-66
2021/07/08 14:20:24;;;;;;;11.75;6.85;;;;;;;;;;5112085;28;20027;-66
2021/07/08 14:22:50;;;;;;;11.45;7.00;;;;;;;;;;5110508;27;20027;-66
2021/07/08 14:25:16;;;;;;;12.57;7.80;;;;;;;;;;5109228;28;20036;-66
2021/07/08 14:27:44;;;;;;;9.45;6.82;;;;;;;;;;5110248;28;20058;-65
2021/07/08 14:30:10;;;;;;;12.60;7.07;;;;;;;;;;5112161;28;20020;-66
2021/07/08 14:32:38;;;;;;;10.13;5.68;;;;;;;;;;5110164;28;20019;-65
2021/07/08 14:35:05;;;;;;;10.90;6.07;;;;;;;;;;5107828;28;20110;-66
2021/07/08 14:37:31;;;;;;;11.90;6.93;;;;;;;;;;5091145;28;20023;-66
2021/07/08 14:39:57;;;;;;;11.38;7.15;;;;;;;;;;5112660;28;20055;-65